Time;durP1;ratioP1;P1;durP2;ratioP2;P2;SDS_P1;SDS_P2;PMS_P1;PMS_P2;Temp;Humidity;BMP_temperature;BMP_pressure;BME280_temperature;BME280_humidity;BME280_pressure;Samples;Min_cycle;Max_cycle;Signal;HPM_P1;HPM_P2
2022/05/02 00:01:01;;;;;;;2.28;1.52;;;19.60;50.20;;;;;;4514395;31;20607;-64
2022/05/02 00:03:27;;;;;;;2.20;1.27;;;19.60;50.20;;;;;;4514149;31;20116;-64
2022/05/02 00:05:53;;;;;;;3.08;1.60;;;19.60;50.20;;;;;;4513844;31;20120;-66
2022/05/02 00:08:19;;;;;;;2.05;1.10;;;19.60;50.10;;;;;;4514675;31;20143;-64
2022/05/02 00:10:45;;;;;;;2.33;1.30;;;19.60;50.10;;;;;;4513386;31;20124;-64
2022/05/02 00:13:10;;;;;;;2.78;1.52;;;19.60;50.10;;;;;;4514160;31;20116;-64
2022/05/02 00:15:37;;;;;;;2.72;1.20;;;19.60;50.10;;;;;;4513752;31;20132;-64
2022/05/02 00:18:04;;;;;;;2.60;1.35;;;19.60;50.10;;;;;;4513974;31;20123;-65
2022/05/02 00:20:33;;;;;;;1.88;1.30;;;19.60;50.10;;;;;;4514019;31;20190;-64
2022/05/02 00:23:00;;;;;;;2.80;1.33;;;19.50;50.00;;;;;;4513334;31;20194;-64
2022/05/02 00:25:27;;;;;;;2.25;1.40;;;19.50;50.00;;;;;;4514311;31;20124;-65
2022/05/02 00:27:53;;;;;;;2.90;1.33;;;19.50;50.00;;;;;;4513231;31;20124;-65
2022/05/02 00:30:20;;;;;;;1.40;1.13;;;19.50;50.00;;;;;;4513941;31;20136;-64
2022/05/02 00:32:46;;;;;;;2.65;1.40;;;19.50;50.00;;;;;;4513549;31;20147;-65
2022/05/02 00:35:13;;;;;;;1.90;1.30;;;19.50;50.00;;;;;;4513687;31;20236;-65
2022/05/02 00:37:40;;;;;;;2.30;1.20;;;19.50;50.00;;;;;;4513969;31;20124;-65
2022/05/02 00:40:08;;;;;;;1.98;1.30;;;19.50;50.00;;;;;;4513316;31;20127;-64
2022/05/02 00:42:34;;;;;;;2.42;1.40;;;19.50;50.00;;;;;;4513809;31;20580;-65
2022/05/02 00:45:00;;;;;;;1.92;1.13;;;19.50;50.00;;;;;;4512982;31;20139;-65
2022/05/02 00:47:26;;;;;;;3.25;1.30;;;19.40;49.90;;;;;;4513637;31;20378;-65
2022/05/02 00:49:52;;;;;;;2.00;1.23;;;19.40;49.90;;;;;;4513346;31;20191;-65
2022/05/02 00:52:19;;;;;;;1.98;1.15;;;19.40;50.00;;;;;;4513541;31;20147;-65
2022/05/02 00:54:46;;;;;;;3.47;1.50;;;19.40;49.90;;;;;;4513415;31;20270;-64
2022/05/02 00:57:13;;;;;;;1.73;1.25;;;19.40;49.90;;;;;;4513077;31;20128;-65
2022/05/02 00:59:39;;;;;;;2.25;1.33;;;19.40;49.90;;;;;;4513752;31;20182;-65
2022/05/02 01:02:07;;;;;;;1.63;1.20;;;19.40;49.90;;;;;;4512784;31;20136;-63
2022/05/02 01:04:34;;;;;;;2.53;1.20;;;19.40;49.90;;;;;;4513585;31;20128;-64
2022/05/02 01:07:11;;;;;;;1.15;0.85;;;19.40;49.90;;;;;;4513121;31;20258;-64
2022/05/02 01:09:47;;;;;;;2.90;1.35;;;19.40;49.90;;;;;;4513357;31;20465;-64
2022/05/02 01:12:17;;;;;;;2.40;1.40;;;19.40;49.90;;;;;;4513408;31;20125;-64
2022/05/02 01:14:44;;;;;;;2.88;1.08;;;19.40;49.90;;;;;;4512792;31;20190;-64
2022/05/02 01:17:10;;;;;;;2.03;1.02;;;19.40;49.90;;;;;;4513565;31;20155;-64
2022/05/02 01:19:37;;;;;;;2.05;1.13;;;19.40;49.90;;;;;;4512893;31;20217;-64
2022/05/02 01:22:04;;;;;;;1.92;1.30;;;19.30;49.90;;;;;;4513186;31;20147;-64
2022/05/02 01:24:48;;;;;;;2.10;1.20;;;19.30;49.90;;;;;;4513003;31;20140;-64
2022/05/02 01:27:15;;;;;;;2.30;1.20;;;19.30;49.80;;;;;;4512718;31;20132;-65
2022/05/02 01:29:42;;;;;;;1.63;1.27;;;19.30;49.80;;;;;;4513700;31;20148;-64
2022/05/02 01:32:11;;;;;;;2.30;1.13;;;19.30;49.90;;;;;;4512556;31;20270;-64
2022/05/02 01:34:40;;;;;;;1.88;0.88;;;19.30;49.80;;;;;;4513303;31;20136;-64
2022/05/02 01:37:12;;;;;;;1.83;1.20;;;19.30;49.90;;;;;;4512730;31;20250;-65
2022/05/02 01:39:39;;;;;;;1.67;1.10;;;19.30;49.90;;;;;;4513051;31;20172;-64
2022/05/02 01:42:10;;;;;;;1.63;1.00;;;19.30;49.90;;;;;;4513026;31;20138;-65
2022/05/02 01:44:36;;;;;;;1.75;1.00;;;19.30;49.80;;;;;;4512226;31;20189;-64
2022/05/02 01:47:03;;;;;;;1.55;0.90;;;19.20;49.80;;;;;;4513450;31;20270;-64
2022/05/02 01:49:29;;;;;;;1.52;0.95;;;19.20;49.70;;;;;;4512557;31;20147;-64
2022/05/02 01:51:57;;;;;;;1.40;0.90;;;19.20;49.70;;;;;;4513196;31;20140;-64
2022/05/02 01:54:26;;;;;;;1.75;1.02;;;19.20;49.80;;;;;;4512739;31;20144;-64
2022/05/02 01:56:53;;;;;;;1.42;0.80;;;19.20;49.80;;;;;;4512820;31;20120;-64
2022/05/02 01:59:19;;;;;;;1.83;1.13;;;19.20;49.80;;;;;;4512593;31;20270;-64
2022/05/02 02:01:44;;;;;;;1.70;0.93;;;19.20;50.20;;;;;;4499040;31;20552;-64
2022/05/02 02:06:54;;;;;;;1.40;1.05;;;19.20;49.80;;;;;;4499252;31;20255;-64
2022/05/02 02:09:21;;;;;;;1.77;1.23;;;19.20;49.80;;;;;;4499337;31;20759;-64
2022/05/02 02:11:46;;;;;;;2.05;1.08;;;19.20;49.80;;;;;;4499335;31;20125;-64
2022/05/02 02:14:12;;;;;;;2.70;1.20;;;19.10;49.70;;;;;;4498551;31;20131;-64
2022/05/02 02:16:39;;;;;;;2.65;1.08;;;19.10;49.70;;;;;;4499929;31;20306;-64
2022/05/02 02:19:04;;;;;;;1.77;0.98;;;19.10;49.70;;;;;;4512442;31;20136;-63
2022/05/02 02:21:33;;;;;;;2.80;0.80;;;19.20;49.80;;;;;;4515414;31;20177;-64
2022/05/02 02:23:59;;;;;;;2.15;0.95;;;19.10;49.70;;;;;;4514562;31;20160;-64
2022/05/02 02:26:25;;;;;;;1.70;0.95;;;19.10;49.70;;;;;;4515107;31;20611;-64
2022/05/02 02:28:51;;;;;;;2.33;0.90;;;19.10;49.70;;;;;;4512861;31;20262;-64
2022/05/02 02:31:17;;;;;;;1.25;0.82;;;19.10;49.70;;;;;;4513996;31;20127;-64
2022/05/02 02:33:50;;;;;;;2.15;1.00;;;19.10;49.70;;;;;;4515305;31;20132;-64
2022/05/02 02:36:16;;;;;;;1.40;0.98;;;19.10;49.70;;;;;;4513374;31;20112;-64
2022/05/02 02:38:43;;;;;;;1.27;0.80;;;19.10;49.70;;;;;;4515139;31;20265;-64
2022/05/02 02:41:09;;;;;;;1.30;0.70;;;19.10;49.70;;;;;;4514571;31;20158;-64
2022/05/02 02:43:35;;;;;;;1.30;0.68;;;19.10;49.70;;;;;;4514436;31;20213;-63
2022/05/02 02:46:00;;;;;;;1.48;0.88;;;19.10;49.70;;;;;;4514730;31;20176;-64
2022/05/02 02:48:26;;;;;;;1.30;0.90;;;19.10;49.80;;;;;;4514466;31;20124;-64
2022/05/02 02:50:52;;;;;;;1.27;1.00;;;19.10;49.70;;;;;;4515315;31;20100;-64
2022/05/02 02:53:18;;;;;;;1.48;0.90;;;19.00;49.70;;;;;;4514009;31;20124;-64
2022/05/02 02:55:44;;;;;;;1.30;0.73;;;19.00;49.70;;;;;;4509384;31;20178;-64
2022/05/02 02:58:09;;;;;;;1.40;0.77;;;19.00;49.70;;;;;;4498205;31;20210;-64
2022/05/02 03:00:36;;;;;;;1.77;1.02;;;19.00;49.70;;;;;;4498587;31;20116;-64
2022/05/02 03:03:02;;;;;;;0.68;0.60;;;19.00;49.70;;;;;;4497933;31;20152;-63
2022/05/02 03:08:13;;;;;;;1.38;0.82;;;19.00;49.70;;;;;;4498465;31;20140;-64
2022/05/02 03:10:39;;;;;;;1.80;0.95;;;19.00;49.70;;;;;;4497306;31;20493;-64
2022/05/02 03:13:05;;;;;;;1.45;0.90;;;19.00;49.70;;;;;;4497779;31;20636;-63
2022/05/02 03:15:33;;;;;;;1.08;0.73;;;19.00;49.70;;;;;;4497951;31;20274;-64
2022/05/02 03:17:59;;;;;;;1.25;0.80;;;18.90;49.70;;;;;;4498978;31;20136;-63
2022/05/02 03:20:24;;;;;;;1.30;0.90;;;18.90;49.60;;;;;;4499087;31;20125;-64
2022/05/02 03:22:50;;;;;;;1.20;0.80;;;18.90;49.60;;;;;;4498634;31;20677;-64
2022/05/02 03:25:16;;;;;;;1.05;0.77;;;18.90;49.60;;;;;;4499474;31;20305;-63
2022/05/02 03:27:42;;;;;;;1.20;0.77;;;18.90;49.60;;;;;;4498185;31;20128;-64
2022/05/02 03:30:08;;;;;;;1.10;0.70;;;18.90;49.60;;;;;;4499378;31;20132;-64
2022/05/02 03:32:34;;;;;;;0.95;0.60;;;18.90;49.70;;;;;;4498442;31;20629;-64
2022/05/02 03:35:00;;;;;;;1.73;0.80;;;18.90;49.70;;;;;;4499042;31;20139;-63
2022/05/02 03:37:26;;;;;;;1.25;0.70;;;18.90;49.70;;;;;;4498667;31;20137;-64
2022/05/02 03:39:52;;;;;;;1.48;0.80;;;18.90;49.60;;;;;;4498333;31;20144;-63
2022/05/02 03:42:18;;;;;;;1.27;0.85;;;18.90;49.70;;;;;;4497727;31;20140;-63
2022/05/02 03:44:44;;;;;;;1.20;0.60;;;18.90;49.70;;;;;;4497776;31;20269;-64
2022/05/02 03:47:10;;;;;;;1.00;0.82;;;18.80;49.60;;;;;;4498807;31;20136;-64
2022/05/02 03:49:36;;;;;;;1.17;0.65;;;18.80;49.60;;;;;;4498218;31;20181;-64
2022/05/02 03:52:02;;;;;;;0.75;0.63;;;18.80;49.60;;;;;;4498594;31;20251;-64
2022/05/02 03:54:27;;;;;;;1.15;0.70;;;18.80;49.60;;;;;;4498318;31;20140;-64
2022/05/02 03:56:53;;;;;;;0.95;0.70;;;18.80;49.60;;;;;;4498357;31;20132;-64
2022/05/02 03:59:19;;;;;;;1.08;0.80;;;18.80;49.60;;;;;;4498890;31;20105;-64
2022/05/02 04:01:45;;;;;;;1.10;0.80;;;18.80;49.60;;;;;;4497730;31;20121;-64
2022/05/02 04:04:11;;;;;;;1.00;0.80;;;18.80;49.60;;;;;;4498523;31;20124;-64
2022/05/02 04:06:37;;;;;;;1.05;0.80;;;18.80;49.60;;;;;;4497990;31;20112;-64
2022/05/02 04:09:03;;;;;;;1.73;0.65;;;18.80;49.70;;;;;;4498259;31;20175;-64
2022/05/02 04:11:29;;;;;;;0.95;0.60;;;18.80;49.70;;;;;;4497902;31;20125;-64
2022/05/02 04:13:55;;;;;;;0.65;0.55;;;18.80;49.70;;;;;;4497722;31;20152;-64
2022/05/02 04:16:21;;;;;;;1.02;0.60;;;18.70;49.60;;;;;;4498232;31;20113;-64
2022/05/02 04:18:47;;;;;;;1.17;0.75;;;18.80;49.70;;;;;;4497610;31;20121;-64
2022/05/02 04:21:14;;;;;;;1.10;0.80;;;18.70;49.70;;;;;;4498013;31;20490;-64
2022/05/02 04:23:39;;;;;;;0.95;0.60;;;18.70;49.70;;;;;;4497466;31;20132;-63
2022/05/02 04:26:05;;;;;;;0.75;0.60;;;18.70;49.70;;;;;;4498136;31;20117;-64
2022/05/02 04:28:31;;;;;;;1.05;0.70;;;18.70;49.70;;;;;;4497687;31;20125;-64
2022/05/02 04:30:57;;;;;;;1.25;0.75;;;18.70;49.70;;;;;;4497961;31;20125;-63
2022/05/02 04:33:24;;;;;;;1.23;0.60;;;18.70;49.70;;;;;;4496987;31;20254;-64
2022/05/02 04:35:49;;;;;;;1.45;0.70;;;18.70;49.70;;;;;;4497531;31;20584;-63
2022/05/02 04:38:15;;;;;;;1.63;0.60;;;18.70;49.70;;;;;;4498139;31;20324;-64
2022/05/02 04:40:42;;;;;;;1.17;0.60;;;18.70;49.70;;;;;;4497296;31;20137;-63
2022/05/02 04:43:08;;;;;;;1.08;0.63;;;18.70;49.70;;;;;;4497417;31;20146;-64
2022/05/02 04:45:33;;;;;;;0.80;0.60;;;18.70;49.70;;;;;;4497479;31;20132;-64
2022/05/02 04:47:59;;;;;;;1.33;0.80;;;18.70;49.70;;;;;;4497724;31;20143;-63
2022/05/02 04:50:25;;;;;;;1.30;0.63;;;18.70;49.70;;;;;;4497841;31;20201;-65
2022/05/02 04:52:51;;;;;;;1.25;0.50;;;18.70;49.70;;;;;;4497314;31;20120;-66
2022/05/02 04:55:17;;;;;;;0.60;0.43;;;18.70;49.70;;;;;;4498040;31;20132;-63
2022/05/02 04:57:43;;;;;;;0.80;0.60;;;18.70;49.70;;;;;;4497043;31;20124;-64
2022/05/02 05:00:09;;;;;;;0.70;0.60;;;18.60;49.70;;;;;;4497899;31;20214;-64
2022/05/02 05:02:35;;;;;;;1.05;0.63;;;18.60;49.70;;;;;;4497184;31;20274;-64
2022/05/02 05:05:01;;;;;;;0.85;0.52;;;18.60;49.70;;;;;;4497482;31;20119;-63
2022/05/02 05:07:27;;;;;;;1.25;0.63;;;18.60;49.70;;;;;;4497514;31;20275;-64
2022/05/02 05:09:54;;;;;;;1.17;0.60;;;18.60;49.70;;;;;;4497214;31;20154;-63
2022/05/02 05:12:52;;;;;;;0.98;0.43;;;18.60;49.70;;;;;;4497657;31;20147;-63
2022/05/02 05:18:34;;;;;;;0.68;0.45;;;18.60;49.70;;;;;;4497125;31;20229;-64
2022/05/02 05:21:15;;;;;;;0.98;0.68;;;18.60;49.70;;;;;;4498025;31;20150;-64
2022/05/02 05:23:57;;;;;;;0.52;0.40;;;18.60;49.70;;;;;;4496933;31;20128;-63
2022/05/02 05:26:44;;;;;;;0.73;0.50;;;18.60;49.70;;;;;;4497469;31;20198;-63
2022/05/02 05:29:40;;;;;;;0.70;0.65;;;18.60;49.70;;;;;;4497525;31;20132;-63
2022/05/02 05:32:28;;;;;;;0.47;0.40;;;18.50;49.70;;;;;;4496888;31;20242;-63
2022/05/02 05:35:06;;;;;;;0.47;0.38;;;18.50;49.70;;;;;;4500671;31;20194;-63
2022/05/02 05:37:59;;;;;;;0.75;0.52;;;18.50;49.70;;;;;;4500713;31;20143;-63
2022/05/02 05:40:38;;;;;;;1.08;0.60;;;18.50;49.80;;;;;;4499987;31;20132;-63
2022/05/02 05:43:22;;;;;;;0.57;0.50;;;18.60;49.80;;;;;;4500129;31;20146;-63
2022/05/02 05:46:03;;;;;;;0.75;0.57;;;18.50;49.80;;;;;;4500307;31;20140;-63
2022/05/02 05:48:57;;;;;;;0.55;0.50;;;18.50;49.80;;;;;;4500100;31;20132;-63
2022/05/02 05:51:36;;;;;;;0.63;0.30;;;18.50;49.80;;;;;;4500629;31;20535;-63
2022/05/02 05:54:23;;;;;;;0.63;0.47;;;18.50;49.80;;;;;;4499860;31;20143;-64
2022/05/02 05:57:03;;;;;;;0.30;0.30;;;18.50;49.80;;;;;;4499951;31;20132;-64
2022/05/02 05:59:54;;;;;;;0.75;0.47;;;18.50;49.80;;;;;;4500828;31;20251;-64
2022/05/02 06:02:23;;;;;;;1.27;0.60;;;18.50;49.80;;;;;;4499801;31;20248;-64
2022/05/02 06:04:50;;;;;;;0.57;0.40;;;18.60;49.90;;;;;;4500211;31;20128;-64
2022/05/02 06:07:21;;;;;;;0.93;0.57;;;18.60;49.80;;;;;;4499981;31;20353;-63
2022/05/02 06:09:52;;;;;;;0.47;0.40;;;18.60;49.80;;;;;;4499789;31;20224;-65
2022/05/02 06:12:20;;;;;;;1.20;0.50;;;18.60;49.90;;;;;;4500564;31;20131;-64
2022/05/02 06:20:24;;;;;;;0.95;0.38;;;18.60;49.90;;;;;;4500224;31;20199;-64
2022/05/02 06:22:50;;;;;;;0.93;0.40;;;18.60;49.90;;;;;;4499526;31;20474;-64
2022/05/02 06:25:22;;;;;;;0.55;0.50;;;18.60;50.00;;;;;;4500179;31;20589;-64
2022/05/02 06:27:49;;;;;;;0.80;0.65;;;18.60;50.00;;;;;;4499283;31;20147;-62
2022/05/02 06:30:16;;;;;;;1.10;0.57;;;18.60;50.00;;;;;;4499773;31;20194;-62
2022/05/02 06:32:43;;;;;;;2.15;0.90;;;18.60;50.00;;;;;;4499309;31;20144;-63
2022/05/02 06:35:09;;;;;;;1.45;0.68;;;18.70;50.00;;;;;;4498715;31;20466;-63
2022/05/02 06:37:41;;;;;;;1.05;0.70;;;18.70;50.00;;;;;;4499748;31;20595;-62
2022/05/02 06:40:18;;;;;;;1.90;0.75;;;18.70;49.90;;;;;;4499043;31;20125;-62
2022/05/02 06:43:18;;;;;;;3.88;1.05;;;18.70;49.90;;;;;;4498580;31;20553;-63
2022/05/02 06:46:10;;;;;;;5.18;1.02;;;18.80;50.00;;;;;;4499419;31;20143;-62
2022/05/02 06:48:44;;;;;;;1.02;0.73;;;18.80;50.30;;;;;;4498443;31;20132;-62
2022/05/02 06:51:38;;;;;;;1.90;0.85;;;18.90;50.30;;;;;;4500267;31;20144;-63
2022/05/02 06:54:35;;;;;;;2.95;0.98;;;18.90;50.20;;;;;;4513686;31;20128;-63
2022/05/02 06:57:30;;;;;;;1.75;0.98;;;18.90;50.10;;;;;;4499850;31;20151;-64
2022/05/02 07:00:10;;;;;;;1.30;0.80;;;19.00;50.10;;;;;;4514967;31;20150;-64
2022/05/02 07:02:55;;;;;;;1.80;0.98;;;19.00;50.10;;;;;;4514125;31;20221;-65
2022/05/02 07:05:47;;;;;;;2.50;1.10;;;19.00;50.10;;;;;;4514882;31;20147;-64
2022/05/02 07:08:24;;;;;;;1.73;1.00;;;19.00;50.10;;;;;;4513271;31;20170;-65
2022/05/02 07:11:01;;;;;;;1.48;0.88;;;19.00;50.00;;;;;;4507922;31;20155;-65
2022/05/02 07:13:48;;;;;;;1.75;1.02;;;19.10;50.00;;;;;;4513447;31;20142;-64
2022/05/02 07:16:25;;;;;;;2.38;0.75;;;19.10;49.90;;;;;;4506661;31;20132;-64
2022/05/02 07:18:56;;;;;;;2.60;1.10;;;19.10;49.70;;;;;;4497963;31;20450;-65
2022/05/02 07:21:44;;;;;;;1.35;0.80;;;19.10;49.60;;;;;;4498644;31;20129;-65
2022/05/02 07:24:20;;;;;;;1.85;0.70;;;19.10;49.50;;;;;;4497824;31;20144;-64
2022/05/02 07:26:58;;;;;;;2.20;0.80;;;19.10;49.30;;;;;;4498274;31;20145;-64
2022/05/02 07:29:25;;;;;;;1.38;0.80;;;19.20;49.40;;;;;;4499534;31;20121;-65
2022/05/02 07:31:51;;;;;;;1.35;0.77;;;19.20;49.20;;;;;;4498113;31;20120;-65
2022/05/02 07:34:20;;;;;;;1.92;0.90;;;19.20;49.10;;;;;;4499025;31;20275;-65
2022/05/02 07:36:50;;;;;;;2.83;0.88;;;19.30;49.00;;;;;;4498575;31;20141;-65
2022/05/02 07:39:19;;;;;;;2.08;0.80;;;19.30;48.70;;;;;;4498951;31;20447;-65
2022/05/02 07:41:46;;;;;;;3.28;0.98;;;19.30;48.70;;;;;;4498703;31;20140;-65
2022/05/02 07:44:13;;;;;;;3.55;1.00;;;19.30;48.50;;;;;;4497908;31;20132;-65
2022/05/02 07:46:42;;;;;;;1.27;0.80;;;19.40;48.50;;;;;;4499070;31;20108;-65
2022/05/02 07:49:10;;;;;;;1.17;0.75;;;19.40;48.30;;;;;;4498005;31;20147;-65
2022/05/02 07:51:50;;;;;;;3.75;1.17;;;19.40;48.20;;;;;;4498639;31;20277;-65
2022/05/02 07:54:24;;;;;;;1.75;0.90;;;19.40;48.00;;;;;;4498220;31;20185;-64
2022/05/02 07:56:50;;;;;;;;;;;19.40;47.90;;;;;;4498216;31;20226;-67
2022/05/02 07:59:19;;;;;;;3.35;1.13;;;19.40;47.50;;;;;;4498752;31;20031;-67
2022/05/02 08:01:45;;;;;;;2.20;1.30;;;19.50;47.80;;;;;;4497865;31;20187;-67
2022/05/02 08:04:13;;;;;;;3.25;1.48;;;19.50;47.80;;;;;;4498368;31;20259;-67
2022/05/02 08:07:00;;;;;;;3.15;1.48;;;19.50;47.70;;;;;;4497859;31;20124;-67
2022/05/02 08:09:38;;;;;;;4.80;1.50;;;19.50;47.60;;;;;;4497875;31;20577;-67
2022/05/02 08:12:23;;;;;;;3.60;1.67;;;19.50;47.30;;;;;;4497921;31;20321;-67
2022/05/02 08:14:57;;;;;;;3.42;1.50;;;19.50;47.20;;;;;;4496872;31;20190;-67
2022/05/02 08:17:48;;;;;;;2.75;1.50;;;19.50;47.10;;;;;;4510176;31;20128;-67
2022/05/02 08:20:23;;;;;;;3.58;1.30;;;19.60;47.00;;;;;;4513528;31;20120;-67
2022/05/02 08:29:33;;;;;;;3.58;1.50;;;19.60;46.60;;;;;;4511686;31;20262;-67
2022/05/02 08:32:08;;;;;;;2.60;1.60;;;19.60;46.40;;;;;;4513536;31;20611;-71
2022/05/02 08:34:40;;;;;;;1.83;1.25;;;19.60;46.40;;;;;;4513827;31;20132;-66
2022/05/02 08:37:18;;;;;;;2.75;1.33;;;19.70;46.50;;;;;;4511910;31;20273;-66
2022/05/02 08:40:11;;;;;;;5.25;1.60;;;19.70;46.40;;;;;;4512940;31;20120;-66
2022/05/02 08:43:08;;;;;;;2.15;1.50;;;19.70;46.30;;;;;;4504469;31;20140;-66
2022/05/02 08:46:05;;;;;;;3.28;1.40;;;19.70;46.20;;;;;;4497457;31;20124;-66
2022/05/02 08:48:37;;;;;;;3.22;1.55;;;19.70;46.20;;;;;;4497277;31;20133;-66
2022/05/02 08:51:43;;;;;;;1.85;1.23;;;19.70;46.20;;;;;;4498184;31;20318;-67
2022/05/02 08:54:33;;;;;;;5.68;1.73;;;19.80;46.30;;;;;;4497252;31;20139;-66
2022/05/02 08:57:39;;;;;;;4.15;1.50;;;19.80;46.10;;;;;;4497196;31;20140;-66
2022/05/02 09:00:11;;;;;;;3.85;1.60;;;19.80;46.30;;;;;;4494567;31;20144;-66
2022/05/02 09:03:15;;;;;;;3.58;1.40;;;19.80;46.20;;;;;;4509890;31;20145;-66
2022/05/02 09:06:06;;;;;;;3.72;1.70;;;19.90;46.20;;;;;;4500738;31;20286;-67
2022/05/02 09:09:18;;;;;;;1.92;1.30;;;19.90;46.20;;;;;;4501362;31;20140;-68
2022/05/02 09:12:21;;;;;;;3.90;1.45;;;19.90;46.20;;;;;;4512343;31;20155;-69
2022/05/02 09:15:22;;;;;;;2.65;1.30;;;19.90;46.20;;;;;;4512561;31;20128;-66
2022/05/02 09:18:11;;;;;;;3.70;1.50;;;20.00;46.40;;;;;;4507121;31;20124;-66
2022/05/02 09:20:58;;;;;;;4.18;1.23;;;20.00;46.40;;;;;;4513609;31;20143;-66
2022/05/02 09:23:34;;;;;;;2.47;1.48;;;20.00;46.20;;;;;;4512690;31;20133;-66
2022/05/02 09:26:06;;;;;;;2.58;1.05;;;20.00;46.30;;;;;;4512962;31;20136;-66
2022/05/02 09:28:53;;;;;;;3.30;0.93;;;20.00;46.30;;;;;;4512409;31;20278;-66
2022/05/02 09:31:59;;;;;;;4.82;1.23;;;20.00;46.40;;;;;;4511233;31;20120;-66
2022/05/02 09:34:45;;;;;;;3.53;1.25;;;20.00;46.40;;;;;;4479587;32;20334;-65
2022/05/02 09:37:21;;;;;;;5.45;1.58;;;20.00;46.40;;;;;;4483748;31;20245;-64
2022/05/02 09:39:57;;;;;;;7.03;1.38;;;20.10;46.40;;;;;;4501662;31;20129;-64
2022/05/02 09:42:40;;;;;;;8.10;1.40;;;20.10;46.60;;;;;;4499406;31;20148;-64
2022/05/02 09:51:32;;;;;;;7.28;1.02;;;20.10;46.70;;;;;;4503012;31;20245;-65
2022/05/02 09:57:22;;;;;;;5.95;1.10;;;20.20;46.90;;;;;;4504150;31;20181;-66
2022/05/02 10:01:06;;;;;;;3.33;1.10;;;20.20;46.90;;;;;;4510771;31;20368;-65
2022/05/02 10:02:45;;;;;;;3.05;1.13;;;20.20;46.90;;;;;;4511831;31;20147;-65
2022/05/02 10:05:21;;;;;;;3.13;0.93;;;20.30;46.90;;;;;;4512384;31;20268;-65
2022/05/02 10:08:30;;;;;;;2.67;1.00;;;20.30;46.80;;;;;;4513432;31;20186;-64
2022/05/02 10:11:40;;;;;;;4.20;1.30;;;20.30;46.90;;;;;;4500305;31;20253;-65
2022/05/02 10:14:05;;;;;;;3.85;1.83;;;20.20;47.00;;;;;;4478382;32;20147;-68
2022/05/02 10:16:46;;;;;;;4.18;1.35;;;20.20;46.80;;;;;;4505051;31;20132;-68
2022/05/02 10:19:50;;;;;;;5.30;1.38;;;20.20;47.20;;;;;;4510798;31;20176;-66
2022/05/02 10:22:37;;;;;;;5.82;1.52;;;20.10;46.20;;;;;;4499688;31;20120;-65
2022/05/02 10:25:42;;;;;;;5.35;1.40;;;20.10;46.20;;;;;;4500432;31;20143;-67
2022/05/02 10:28:36;;;;;;;4.45;1.42;;;20.10;46.10;;;;;;4499378;31;20221;-66
2022/05/02 10:31:21;;;;;;;4.60;1.50;;;20.10;46.30;;;;;;4498007;31;20129;-66
2022/05/02 10:33:51;;;;;;;1.98;1.25;;;20.10;46.40;;;;;;4499666;31;20136;-66
2022/05/02 10:36:22;;;;;;;3.10;1.13;;;20.10;46.40;;;;;;4497423;31;20147;-67
2022/05/02 10:38:53;;;;;;;3.00;1.33;;;20.10;46.40;;;;;;4499416;31;20133;-66
2022/05/02 10:41:28;;;;;;;4.15;1.20;;;20.10;46.40;;;;;;4499490;31;20135;-67
2022/05/02 10:44:04;;;;;;;3.53;1.20;;;20.10;46.30;;;;;;4498876;31;20206;-73
2022/05/02 10:46:32;;;;;;;7.03;1.25;;;20.10;46.40;;;;;;4500015;31;20143;-68
2022/05/02 10:49:14;;;;;;;4.15;1.33;;;20.10;46.70;;;;;;4508237;31;20375;-68
2022/05/02 10:51:51;;;;;;;5.87;1.40;;;20.10;46.70;;;;;;4514575;31;20158;-65
2022/05/02 10:54:36;;;;;;;2.53;1.17;;;20.10;46.80;;;;;;4515411;31;20230;-66
2022/05/02 10:57:23;;;;;;;3.50;1.25;;;20.10;46.70;;;;;;4503687;31;20128;-65
2022/05/02 10:59:52;;;;;;;4.28;1.55;;;20.10;46.50;;;;;;4513695;31;20671;-67
2022/05/02 11:02:55;;;;;;;2.92;1.45;;;20.10;46.50;;;;;;4513212;31;20136;-65
2022/05/02 11:05:48;;;;;;;5.50;1.20;;;20.10;46.50;;;;;;4514322;31;20134;-64
2022/05/02 11:08:49;;;;;;;3.20;1.33;;;20.10;46.60;;;;;;4508989;31;20198;-65
2022/05/02 11:11:27;;;;;;;4.65;1.55;;;20.10;46.70;;;;;;4513132;31;20216;-66
2022/05/02 11:14:20;;;;;;;2.65;1.17;;;20.10;46.80;;;;;;4505055;31;20183;-66
2022/05/02 11:17:11;;;;;;;5.22;1.30;;;20.10;46.90;;;;;;4498950;31;20139;-65
2022/05/02 11:22:33;;;;;;;5.65;1.20;;;20.10;46.90;;;;;;4514797;31;20286;-65
2022/05/02 11:25:19;;;;;;;7.10;1.48;;;20.10;47.00;;;;;;4515458;31;20179;-66
2022/05/02 11:28:17;;;;;;;3.42;1.10;;;20.10;47.00;;;;;;4513356;31;20197;-65
2022/05/02 11:30:50;;;;;;;1.65;1.13;;;20.10;47.10;;;;;;4513975;31;20135;-65
2022/05/02 11:33:15;;;;;;;2.55;1.30;;;20.10;47.20;;;;;;4515179;31;20197;-65
2022/05/02 11:35:48;;;;;;;2.60;1.08;;;20.10;47.20;;;;;;4512920;31;20128;-65
2022/05/02 11:38:41;;;;;;;4.32;1.52;;;20.10;47.20;;;;;;4514812;31;20138;-66
2022/05/02 11:41:22;;;;;;;3.67;1.70;;;20.10;47.20;;;;;;4514218;31;20309;-65
2022/05/02 11:43:49;;;;;;;3.63;1.50;;;20.10;47.10;;;;;;4513851;31;20125;-65
2022/05/02 11:46:24;;;;;;;5.47;2.20;;;20.10;47.10;;;;;;4514969;31;20152;-65
2022/05/02 11:49:27;;;;;;;2.67;1.60;;;20.10;47.10;;;;;;4514038;31;20136;-65
2022/05/02 11:51:56;;;;;;;;;;;20.10;47.00;;;;;;4515472;31;20124;-65
2022/05/02 11:54:27;;;;;;;3.05;1.80;;;20.10;47.10;;;;;;4514398;31;20113;-65
2022/05/02 11:57:22;;;;;;;4.53;2.00;;;20.10;47.10;;;;;;4513968;31;20128;-65
2022/05/02 11:59:48;;;;;;;3.80;1.77;;;20.00;46.90;;;;;;4514685;31;20551;-65
2022/05/02 12:02:42;;;;;;;5.43;2.28;;;20.00;47.00;;;;;;4508679;31;20124;-65
2022/05/02 12:05:17;;;;;;;4.43;2.13;;;20.00;46.70;;;;;;4498471;31;20129;-64
2022/05/02 12:07:49;;;;;;;4.80;1.63;;;20.00;46.70;;;;;;4498834;31;20143;-65
2022/05/02 12:10:17;;;;;;;3.58;1.50;;;20.00;46.60;;;;;;4497782;31;20147;-66
2022/05/02 12:12:50;;;;;;;3.50;1.58;;;20.00;46.50;;;;;;4498194;31;20266;-66
2022/05/02 12:15:18;;;;;;;6.63;1.40;;;20.00;46.40;;;;;;4498056;31;20143;-65
2022/05/02 12:17:54;;;;;;;2.97;1.40;;;20.00;46.40;;;;;;4497156;31;20179;-66
2022/05/02 12:20:29;;;;;;;3.90;1.20;;;20.00;46.30;;;;;;4498403;31;20177;-66
2022/05/02 12:23:01;;;;;;;3.25;1.55;;;20.10;46.50;;;;;;4497561;31;20125;-66
2022/05/02 12:25:29;;;;;;;3.10;1.25;;;20.00;46.50;;;;;;4498411;31;20140;-66
2022/05/02 12:27:56;;;;;;;2.92;1.02;;;20.10;46.50;;;;;;4497715;31;20116;-66
2022/05/02 12:30:23;;;;;;;1.67;1.10;;;20.10;46.40;;;;;;4498105;31;20602;-65
2022/05/02 12:32:53;;;;;;;2.28;1.42;;;20.10;46.40;;;;;;4497721;31;20125;-66
2022/05/02 12:35:20;;;;;;;4.85;1.58;;;20.10;46.30;;;;;;4497392;31;20479;-65
2022/05/02 12:37:51;;;;;;;2.55;1.17;;;20.10;47.30;;;;;;4498380;31;20141;-65
2022/05/02 12:40:18;;;;;;;2.97;1.48;;;20.10;46.40;;;;;;4496972;31;20124;-66
2022/05/02 12:42:49;;;;;;;3.58;1.48;;;20.10;46.30;;;;;;4497774;31;20964;-67
2022/05/02 12:45:20;;;;;;;2.63;1.27;;;20.10;46.20;;;;;;4500536;31;20132;-67
2022/05/02 12:47:56;;;;;;;2.03;1.20;;;20.10;46.10;;;;;;4513375;31;20128;-66
2022/05/02 12:50:25;;;;;;;4.65;1.35;;;20.10;46.10;;;;;;4513916;31;20623;-67
2022/05/02 12:53:05;;;;;;;3.25;1.23;;;20.20;46.20;;;;;;4513098;31;20150;-66
2022/05/02 12:55:34;;;;;;;1.50;1.13;;;20.20;46.20;;;;;;4513904;31;20147;-66
2022/05/02 13:00:51;;;;;;;2.15;1.00;;;20.20;46.20;;;;;;4513545;31;20124;-65
2022/05/02 13:03:19;;;;;;;2.65;1.23;;;20.20;46.20;;;;;;4513732;31;20136;-66
2022/05/02 13:05:45;;;;;;;5.55;1.50;;;20.20;46.20;;;;;;4512992;31;20292;-66
2022/05/02 13:08:19;;;;;;;2.05;1.10;;;20.20;46.20;;;;;;4513904;31;20208;-66
2022/05/02 13:10:50;;;;;;;2.42;1.10;;;20.20;46.20;;;;;;4513032;31;20155;-66
2022/05/02 13:13:19;;;;;;;4.10;1.13;;;20.20;46.30;;;;;;4513343;31;20133;-66
2022/05/02 13:15:48;;;;;;;4.93;1.45;;;20.20;46.30;;;;;;4513420;31;20132;-66
2022/05/02 13:18:22;;;;;;;1.60;1.02;;;20.20;46.30;;;;;;4513037;31;20664;-66
2022/05/02 13:21:11;;;;;;;3.40;1.25;;;20.30;46.20;;;;;;4514111;31;20136;-66
2022/05/02 13:23:40;;;;;;;2.75;1.10;;;20.30;46.20;;;;;;4512816;31;20262;-66
2022/05/02 13:26:27;;;;;;;2.35;1.20;;;20.30;46.30;;;;;;4513441;31;20155;-65
2022/05/02 13:29:30;;;;;;;4.78;1.20;;;20.30;46.20;;;;;;4513234;31;20148;-65
2022/05/02 13:32:10;;;;;;;3.28;1.20;;;20.30;46.20;;;;;;4512607;31;20140;-67
2022/05/02 13:35:00;;;;;;;1.55;1.17;;;20.30;46.40;;;;;;4513265;31;20148;-70
2022/05/02 13:37:31;;;;;;;2.40;1.20;;;20.30;46.50;;;;;;4513512;31;20245;-66
2022/05/02 13:40:02;;;;;;;2.33;1.10;;;20.30;46.50;;;;;;4512681;31;20128;-66
2022/05/02 13:42:50;;;;;;;1.30;0.80;;;20.30;46.70;;;;;;4513315;31;20116;-66
2022/05/02 13:45:42;;;;;;;2.58;0.93;;;20.30;46.80;;;;;;4512302;31;20201;-67
2022/05/02 13:48:14;;;;;;;2.08;1.10;;;20.30;46.90;;;;;;4512921;31;20191;-66
2022/05/02 13:50:51;;;;;;;3.03;1.10;;;20.30;46.90;;;;;;4513579;31;20129;-66
2022/05/02 13:53:27;;;;;;;3.47;1.48;;;20.30;47.00;;;;;;4503279;31;20143;-65
2022/05/02 13:55:57;;;;;;;3.33;0.90;;;20.30;47.10;;;;;;4513515;31;20244;-65
2022/05/02 13:58:39;;;;;;;3.78;0.98;;;20.30;47.10;;;;;;4499301;31;20089;-67
2022/05/02 14:01:32;;;;;;;3.08;0.95;;;20.30;47.20;;;;;;4500070;31;20144;-66